Bel Air, Maryland - USA


Today's Data File


6/17/24
Time         Wind Dir   Wind Spd  Wind Gust     Hum In   Humidity    Temp In       Temp  Raw Barom Wind Chill  Press Alt Cloud Base   Dens Alt Temp Out R  DailyRain   24HrRain   RainRate
                    �        mph        mph          %          %         �F         �F         in         �F         ft         ft         ft      �F/hr         in         in      in/hr
12:00am           162          0          2         45         79       70.9       69.3      29.62       69.3        283       1696       1037      -1.57       0.00       0.00      0.000
12:01am           162          0          0         46         79       70.9       69.3      29.62       69.3        283       1696       1037      -1.54       0.00       0.00      0.000
12:02am           162          0          0         46         80       70.9       69.3      29.62       69.3        282       1607       1036      -1.53       0.00       0.00      0.000
12:03am           162          0          0         46         80       70.9       69.2      29.62       69.2        282       1606       1029      -1.60       0.00       0.00      0.000
12:04am           162          0          0         46         80       70.9       69.2      29.62       69.2        282       1606       1029      -1.57       0.00       0.00      0.000
12:05am           162          0          0         46         80       70.9       69.1      29.62       69.1        283       1606       1024      -1.65       0.00       0.00      0.000
12:06am           162          1          1         45         80       70.9       69.1      29.62       69.1        282       1606       1023      -1.62       0.00       0.00      0.000
12:07am           162          1          3         46         80       70.9       69.1      29.62       69.1        282       1606       1023      -1.59       0.00       0.00      0.000
12:08am           162          0          3         46         80       70.9       69.1      29.62       69.1        281       1606       1022      -1.57       0.00       0.00      0.000
12:09am           162          0          3         46         80       70.9       69.1      29.62       69.1        281       1606       1022      -1.54       0.00       0.00      0.000
12:10am           162          0          3         46         80       70.9       69.0      29.62       69.0        282       1605       1016      -1.62       0.00       0.00      0.000
12:11am           162          0          1         46         80       71.1       69.0      29.62       69.0        281       1605       1015      -1.59       0.00       0.00      0.000
12:12am           162          2          3         46         80       71.1       69.0      29.62       69.0        282       1605       1016      -1.56       0.00       0.00      0.000
12:13am           162          0          3         46         81       71.1       69.0      29.62       69.0        282       1517       1016      -1.54       0.00       0.00      0.000
12:14am           162          1          3         46         81       71.1       69.0      29.62       69.0        283       1517       1017      -1.51       0.00       0.00      0.000
12:15am           162          2          3         46         81       71.1       69.0      29.62       69.0        283       1517       1017      -1.49       0.00       0.00      0.000
12:16am           162          0          2         46         81       71.1       69.0      29.62       69.0        283       1517       1017      -1.46       0.00       0.00      0.000
12:17am           162          0          2         46         81       71.1       69.0      29.62       69.0        282       1517       1016      -1.44       0.00       0.00      0.000
12:18am           162          2          2         46         81       71.1       69.0      29.62       69.0        282       1517       1016      -1.42       0.00       0.00      0.000
12:19am           162          1          2         46         81       71.1       69.0      29.62       69.0        281       1517       1015      -1.39       0.00       0.00      0.000
12:20am           162          0          2         45         81       71.1       69.0      29.62       69.0        281       1517       1015      -1.37       0.00       0.00      0.000
12:21am           162          1          2         46         81       71.1       69.0      29.62       69.0        281       1517       1015      -1.35       0.00       0.00      0.000
12:22am           162          2          2         46         81       70.9       69.0      29.62       69.0        281       1517       1015      -1.32       0.00       0.00      0.000
12:23am           162          1          3         46         81       70.9       69.0      29.62       69.0        282       1517       1016      -1.30       0.00       0.00      0.000
12:24am           162          0          3         46         81       70.9       69.0      29.62       69.0        283       1517       1017      -1.28       0.00       0.00      0.000
12:25am           166          1          3         46         81       70.9       69.0      29.62       69.0        283       1517       1017      -1.26       0.00       0.00      0.000
12:26am           166          1          1         45         81       70.9       68.9      29.61       68.9        283       1516       1012      -1.34       0.00       0.00      0.000
12:27am           166          3          3         45         81       70.9       69.0      29.61       69.0        284       1517       1020      -1.22       0.00       0.00      0.000
12:28am           166          3          3         45         81       70.9       68.9      29.61       68.9        284       1516       1013      -1.30       0.00       0.00      0.000
12:29am           166          1          3         46         81       70.9       68.9      29.61       68.9        284       1516       1013      -1.28       0.00       0.00      0.000
12:30am           166          3          3         46         81       70.9       68.9      29.61       68.9        285       1516       1014      -1.25       0.00       0.00      0.000
12:31am           186          3          3         46         82       70.9       68.9      29.61       68.9        285       1429       1014      -1.23       0.00       0.00      0.000
12:32am           191          3          4         46         82       70.9       68.9      29.61       68.9        285       1429       1014      -1.21       0.00       0.00      0.000
12:33am           191          1          4         45         82       70.9       68.9      29.61       68.9        286       1429       1015      -1.19       0.00       0.00      0.000
12:34am           191          1          4         45         82       70.9       68.9      29.61       68.9        286       1429       1015      -1.17       0.00       0.00      0.000
12:35am           191          0          4         45         82       70.9       68.9      29.61       68.9        286       1429       1015      -1.15       0.00       0.00      0.000
12:36am           191          2          2         45         82       70.9       68.8      29.61       68.8        286       1428       1009      -1.23       0.00       0.00      0.000
12:37am           181          1          4         46         82       70.9       68.8      29.61       68.8        286       1428       1009      -1.21       0.00       0.00      0.000
12:38am           182          1          4         45         82       70.9       68.9      29.61       68.9        286       1429       1015      -1.09       0.00       0.00      0.000
12:39am           191          2          4         46         82       70.9       68.8      29.61       68.8        285       1428       1008      -1.17       0.00       0.00      0.000
12:40am           191          1          4         46         82       70.9       68.8      29.61       68.8        286       1428       1009      -1.15       0.00       0.00      0.000
12:41am           191          0          2         46         82       70.9       68.8      29.61       68.8        286       1428       1009      -1.14       0.00       0.00      0.000
12:42am           191          1          2         46         82       70.9       68.8      29.61       68.8        286       1428       1009      -1.12       0.00       0.00      0.000
12:43am           177          3          4         46         82       70.9       68.8      29.61       68.8        286       1428       1009      -1.10       0.00       0.00      0.000
12:44am           177          2          4         46         82       70.9       68.8      29.61       68.8        286       1428       1009      -1.08       0.00       0.00      0.000
12:45am           192          2          4         46         82       70.9       68.8      29.61       68.8        287       1428       1010      -1.06       0.00       0.00      0.000
12:46am           180          4          4         46         82       70.9       68.8      29.61       68.8        287       1428       1010      -1.05       0.00       0.00      0.000
12:47am           170          4          4         45         83       70.9       68.8      29.61       68.8        287       1342       1010      -1.03       0.00       0.00      0.000
12:48am           171          1          4         45         83       70.9       68.7      29.61       68.7        287       1341       1004      -1.11       0.00       0.00      0.000
12:49am           168          3          4         46         82       70.9       68.8      29.61       68.8        287       1428       1010      -0.99       0.00       0.00      0.000
12:50am           210          1          4         46         83       70.9       68.7      29.61       68.7        287       1341       1004      -1.08       0.00       0.00      0.000
12:51am           182          4          4         45         83       70.9       68.8      29.61       68.8        287       1342       1010      -0.96       0.00       0.00      0.000
12:52am           182          2          4         46         83       70.9       68.8      29.61       68.8        287       1342       1010      -0.94       0.00       0.00      0.000
12:53am           182          1          4         46         83       71.1       68.8      29.61       68.8        287       1342       1010      -0.93       0.00       0.00      0.000
12:54am           182          2          4         46         83       71.1       68.8      29.61       68.8        287       1342       1010      -0.91       0.00       0.00      0.000
12:55am           182          0          4         46         83       71.1       68.7      29.61       68.7        287       1341       1004      -1.00       0.00       0.00      0.000
12:56am           182          3          3         46         83       71.1       68.7      29.61       68.7        287       1341       1004      -0.98       0.00       0.00      0.000
12:57am           203          3          3         46         83       71.1       68.7      29.61       68.7        287       1341       1004      -0.96       0.00       0.00      0.000
12:58am           203          1          3         46         83       71.1       68.7      29.61       68.7        287       1341       1004      -0.95       0.00       0.00      0.000
12:59am           203          1          3         46         83       71.1       68.7      29.61       68.7        287       1341       1004      -0.93       0.00       0.00      0.000
1:00am            203          0          3         46         83       71.1       68.7      29.61       68.7        287       1341       1004      -0.92       0.00       0.00      0.000
1:01am            203          1          2         45         83       71.1       68.6      29.61       68.6        287       1341        997      -1.00       0.00       0.00      0.000
1:02am            203          2          2         46         83       71.1       68.6      29.61       68.6        287       1341        997      -0.98       0.00       0.00      0.000
1:03am            203          2          2         46         83       71.1       68.6      29.61       68.6        287       1341        997      -0.97       0.00       0.00      0.000
1:04am            203          1          3         46         83       71.1       68.5      29.61       68.5        288       1340        992      -1.05       0.00       0.00      0.000
1:05am            196          0          3         46         84       71.1       68.6      29.61       68.6        288       1255        998      -0.93       0.00       0.00      0.000
1:06am            196          0          1         45         83       71.1       68.5      29.61       68.5        289       1340        993      -1.02       0.00       0.00      0.000
1:07am            196          0          1         46         84       71.1       68.5      29.61       68.5        288       1255        992      -1.00       0.00       0.00      0.000
1:08am            197          0          1         46         84       71.1       68.5      29.61       68.5        288       1255        992      -0.98       0.00       0.00      0.000
1:09am            208          1          3         46         84       71.2       68.5      29.61       68.5        288       1255        992      -0.97       0.00       0.00      0.000
1:10am            208          2          3         46         84       71.2       68.4      29.61       68.4        287       1254        985      -1.05       0.00       0.00      0.000
1:11am            208          3          3         45         84       71.2       68.5      29.61       68.5        287       1255        991      -0.93       0.00       0.00      0.000
1:12am            197          2          3         46         84       71.2       68.4      29.61       68.4        287       1254        985      -1.02       0.00       0.00      0.000
1:13am            197          3          3         46         84       71.2       68.4      29.61       68.4        287       1254        985      -1.00       0.00       0.00      0.000
1:14am            197          1          3         46         84       71.2       68.4      29.61       68.4        287       1254        985      -0.98       0.00       0.00      0.000
1:15am            215          2          4         46         84       71.2       68.4      29.61       68.4        287       1254        985      -0.97       0.00       0.00      0.000
1:16am            215          1          2         46         84       71.2       68.4      29.61       68.4        287       1254        985      -0.95       0.00       0.00      0.000
1:17am            215          1          2         45         84       71.2       68.4      29.61       68.4        287       1254        985      -0.94       0.00       0.00      0.000
1:18am            215          1          2         45         84       71.1       68.5      29.61       68.5        287       1255        991      -0.82       0.00       0.00      0.000
1:19am            215          1          2         45         84       71.1       68.4      29.61       68.4        287       1254        985      -0.91       0.00       0.00      0.000
1:20am            215          0          2         46         84       71.1       68.4      29.61       68.4        287       1254        985      -0.89       0.00       0.00      0.000
1:21am            215          0          0         45         84       71.1       68.5      29.61       68.5        287       1255        991      -0.78       0.00       0.00      0.000
1:22am            215          0          1         45         84       71.1       68.5      29.61       68.5        287       1255        991      -0.77       0.00       0.00      0.000
1:23am            215          0          1         46         84       71.1       68.4      29.61       68.4        287       1254        985      -0.85       0.00       0.00      0.000
1:24am            215          1          2         45         84       71.1       68.4      29.61       68.4        287       1254        985      -0.84       0.00       0.00      0.000
1:25am            215          2          2         46         84       71.1       68.4      29.61       68.4        287       1254        985      -0.82       0.00       0.00      0.000
1:26am            215          0          2         46         84       71.1       68.4      29.61       68.4        287       1254        985      -0.81       0.00       0.00      0.000
1:27am            215          0          2         45         84       71.1       68.4      29.61       68.4        287       1254        985      -0.80       0.00       0.00      0.000
1:28am            215          2          2         46         84       71.1       68.3      29.61       68.3        287       1254        978      -0.88       0.00       0.00      0.000
1:29am            215          1          2         45         84       71.1       68.3      29.61       68.3        287       1254        978      -0.87       0.00       0.00      0.000
1:30am            215          1          2         46         84       71.1       68.3      29.61       68.3        287       1254        978      -0.85       0.00       0.00      0.000
1:31am            215          2          2         46         84       71.1       68.2      29.61       68.2        287       1253        972      -0.94       0.00       0.00      0.000
1:32am            215          0          2         46         84       71.1       68.2      29.61       68.2        287       1253        972      -0.92       0.00       0.00      0.000
1:33am            215          1          2         45         84       71.1       68.2      29.61       68.2        287       1253        972      -0.91       0.00       0.00      0.000
1:34am            215          1          2         46         84       71.1       68.2      29.61       68.2        287       1253        972      -0.89       0.00       0.00      0.000
1:35am            215          2          3         46         85       71.1       68.1      29.61       68.1        287       1168        965      -0.98       0.00       0.00      0.000
1:36am            215          1          3         45         85       71.1       68.1      29.61       68.1        287       1168        965      -0.96       0.00       0.00      0.000
1:37am            215          2          3         46         85       71.1       68.1      29.61       68.1        287       1168        965      -0.95       0.00       0.00      0.000
1:38am            228          2          3         46         85       71.1       68.1      29.61       68.1        287       1168        965      -0.93       0.00       0.00      0.000
1:39am            173          1          5         45         85       71.1       68.0      29.61       68.0        287       1168        959      -1.01       0.00       0.00      0.000
1:40am            173          2          5         45         85       71.1       68.1      29.61       68.1        287       1168        965      -0.90       0.00       0.00      0.000
1:41am            173          0          2         46         85       71.1       68.0      29.61       68.0        287       1168        959      -0.98       0.00       0.00      0.000
1:42am            197          2          3         46         85       71.1       68.1      29.61       68.1        287       1168        965      -0.87       0.00       0.00      0.000
1:43am            205          1          5         46         85       71.1       68.1      29.61       68.1        287       1168        965      -0.85       0.00       0.00      0.000
1:44am            205          0          5         46         85       71.1       68.1      29.61       68.1        287       1168        965      -0.84       0.00       0.00      0.000
1:45am            205          2          5         46         85       71.1       68.0      29.61       68.0        287       1168        959      -0.92       0.00       0.00      0.000
1:46am            205          0          3         46         85       71.2       68.0      29.61       68.0        288       1168        960      -0.91       0.00       0.00      0.000
1:47am            205          0          3         46         85       71.2       68.0      29.61       68.0        288       1168        960      -0.90       0.00       0.00      0.000
1:48am            205          0          3         46         85       71.2       68.0      29.61       68.0        289       1168        961      -0.88       0.00       0.00      0.000
1:49am            205          0          3         46         85       71.2       68.0      29.61       68.0        288       1168        960      -0.87       0.00       0.00      0.000
1:50am            205          0          3         46         85       71.2       68.0      29.61       68.0        289       1168        961      -0.85       0.00       0.00      0.000
1:51am            179          4          5         45         85       71.2       67.9      29.61       67.9        289       1167        955      -0.94       0.00       0.00      0.000
1:52am            181          2          5         46         85       71.2       67.9      29.61       67.9        288       1167        953      -0.92       0.00       0.00      0.000
1:53am            181          1          5         46         85       71.2       67.9      29.61       67.9        287       1167        952      -0.90       0.00       0.00      0.000
1:54am            181          0          5         46         85       71.2       67.8      29.61       67.8        287       1167        946      -0.99       0.00       0.00      0.000
1:55am            181          1          5         46         85       71.2       67.9      29.61       67.9        286       1167        951      -0.87       0.00       0.00      0.000
1:56am            202          3          4         46         85       71.2       67.8      29.61       67.8        286       1167        945      -0.96       0.00       0.00      0.000
1:57am            181          3          4         45         85       71.2       67.8      29.61       67.8        286       1167        945      -0.94       0.00       0.00      0.000
1:58am            181          2          4         46         85       71.2       67.8      29.61       67.8        286       1167        945      -0.93       0.00       0.00      0.000
1:59am            181          3          4         46         85       71.2       67.8      29.61       67.8        287       1167        946      -0.91       0.00       0.00      0.000
2:00am            181          2          4         46         85       71.4       67.8      29.61       67.8        287       1167        946      -0.89       0.00       0.00      0.000
2:01am            181          1          2         46         85       71.4       67.8      29.61       67.8        287       1167        946      -0.88       0.00       0.00      0.000
2:02am            181          0          2         46         86       71.4       67.7      29.61       67.7        288       1083        941      -0.96       0.00       0.00      0.000
2:03am            181          0          2         46         86       71.4       67.7      29.61       67.7        289       1083        942      -0.95       0.00       0.00      0.000
2:04am            181          1          2         46         85       71.4       67.7      29.61       67.7        289       1167        942      -0.93       0.00       0.00      0.000
2:05am            214          2          3         46         85       71.4       67.7      29.61       67.7        289       1167        942      -0.92       0.00       0.00      0.000
2:06am            214          1          3         46         85       71.4       67.6      29.61       67.6        288       1166        934      -1.00       0.00       0.00      0.000
2:07am            214          1          3         46         86       71.4       67.6      29.61       67.6        288       1083        934      -0.99       0.00       0.00      0.000
2:08am            204          0          3         46         85       71.4       67.6      29.61       67.6        288       1166        934      -0.97       0.00       0.00      0.000
2:09am            192          2          4         46         85       71.4       67.7      29.61       67.7        288       1167        941      -0.85       0.00       0.00      0.000
2:10am            192          0          4         46         85       71.4       67.6      29.61       67.6        288       1166        934      -0.94       0.00       0.00      0.000
2:11am            192          3          3         46         85       71.4       67.6      29.61       67.6        288       1166        934      -0.92       0.00       0.00      0.000
2:12am            237          2          4         46         85       71.4       67.6      29.61       67.6        288       1166        934      -0.91       0.00       0.00      0.000
2:13am            230          1          4         46         85       71.4       67.6      29.61       67.6        288       1166        934      -0.89       0.00       0.00      0.000
2:14am            229          1          4         46         85       71.4       67.6      29.61       67.6        288       1166        934      -0.88       0.00       0.00      0.000
2:15am            178          1          4         46         85       71.4       67.6      29.61       67.6        288       1166        934      -0.87       0.00       0.00      0.000
2:16am            178          0          2         46         85       71.4       67.6      29.61       67.6        287       1166        933      -0.85       0.00       0.00      0.000
2:17am            178          1          2         46         85       71.4       67.6      29.61       67.6        287       1166        933      -0.84       0.00       0.00      0.000
2:18am            178          0          2         46         85       71.4       67.6      29.61       67.6        287       1166        933      -0.82       0.00       0.00      0.000
2:19am            178          1          3         46         85       71.4       67.6      29.61       67.6        287       1166        933      -0.81       0.00       0.00      0.000
2:20am            177          4          5         46         85       71.4       67.6      29.61       67.6        287       1166        933      -0.80       0.00       0.00      0.000
2:21am            180          2          4         46         85       71.4       67.6      29.61       67.6        287       1166        933      -0.78       0.00       0.00      0.000
2:22am            202          4          4         46         85       71.4       67.5      29.61       67.5        286       1166        926      -0.87       0.00       0.00      0.000
2:23am            208          1          6         46         85       71.4       67.5      29.61       67.5        287       1166        927      -0.85       0.00       0.00      0.000
2:24am            208          0          6         46         85       71.4       67.5      29.61       67.5        287       1166        927      -0.84       0.00       0.00      0.000
2:25am            208          1          6         46         85       71.4       67.5      29.61       67.5        286       1166        926      -0.82       0.00       0.00      0.000
2:26am            204          2          3         45         85       71.4       67.4      29.61       67.4        287       1165        920      -0.91       0.00       0.00      0.000
2:27am            204          0          3         46         85       71.4       67.4      29.61       67.4        287       1165        920      -0.89       0.00       0.00      0.000
2:28am            191          2          4         46         85       71.4       67.3      29.61       67.3        287       1165        914      -0.98       0.00       0.00      0.000
2:29am            215          2          4         46         85       71.4       67.3      29.61       67.3        287       1165        914      -0.96       0.00       0.00      0.000
2:30am            215          2          4         46         85       71.4       67.3      29.61       67.3        288       1165        915      -0.95       0.00       0.00      0.000
2:31am            208          3          3         46         86       71.4       67.3      29.61       67.3        288       1081        915      -0.93       0.00       0.00      0.000
2:32am            183          3          4         46         86       71.4       67.3      29.61       67.3        288       1081        915      -0.92       0.00       0.00      0.000
2:33am            183          1          4         45         86       71.4       67.3      29.61       67.3        289       1081        916      -0.90       0.00       0.00      0.000
2:34am            180          1          4         46         86       71.4       67.2      29.61       67.2        289       1081        910      -0.98       0.00       0.00      0.000
2:35am            180          3          4         46         86       71.4       67.2      29.61       67.2        289       1081        910      -0.97       0.00       0.00      0.000
2:36am            194          2          3         46         86       71.4       67.2      29.61       67.2        288       1081        908      -0.95       0.00       0.00      0.000
2:37am            241          3          3         46         86       71.4       67.2      29.61       67.2        288       1081        908      -0.93       0.00       0.00      0.000
2:38am            218          2          4         46         86       71.4       67.1      29.61       67.1        288       1081        902      -1.02       0.00       0.00      0.000
2:39am            218          0          4         46         86       71.4       67.1      29.61       67.1        288       1081        902      -1.00       0.00       0.00      0.000
2:40am            216          2          4         46         86       71.4       67.1      29.61       67.1        288       1081        902      -0.98       0.00       0.00      0.000
2:41am            216          0          2         46         86       71.4       67.0      29.61       67.0        288       1080        896      -1.07       0.00       0.00      0.000
2:42am            215          0          2         46         86       71.4       67.0      29.61       67.0        287       1080        894      -1.05       0.00       0.00      0.000
2:43am            210          0          2         46         86       71.4       67.0      29.61       67.0        287       1080        894      -1.03       0.00       0.00      0.000
2:44am            204          0          2         46         86       71.4       67.0      29.61       67.0        287       1080        894      -1.02       0.00       0.00      0.000
2:45am            206          0          2         46         86       71.4       67.0      29.61       67.0        287       1080        894      -1.00       0.00       0.00      0.000
2:46am            206          0          0         46         86       71.6       67.0      29.61       67.0        287       1080        894      -0.98       0.00       0.00      0.000
2:47am            206          0          0         46         86       71.6       67.0      29.61       67.0        287       1080        894      -0.97       0.00       0.00      0.000
2:48am            206          0          0         46         86       71.6       67.0      29.61       67.0        287       1080        894      -0.95       0.00       0.00      0.000
2:49am            202          0          0         46         86       71.6       67.0      29.61       67.0        287       1080        894      -0.94       0.00       0.00      0.000
2:50am            202          0          0         46         86       71.6       67.0      29.61       67.0        287       1080        894      -0.92       0.00       0.00      0.000
2:51am            202          0          0         46         86       71.6       67.0      29.61       67.0        287       1080        894      -0.91       0.00       0.00      0.000
2:52am            202          0          0         46         86       71.6       67.0      29.61       67.0        287       1080        894      -0.89       0.00       0.00      0.000
2:53am            202          0          0         46         86       71.6       67.0      29.61       67.0        288       1080        896      -0.88       0.00       0.00      0.000
2:54am            202          0          0         46         86       71.6       67.0      29.61       67.0        288       1080        896      -0.86       0.00       0.00      0.000
2:55am            202          0          0         46         86       71.6       66.9      29.61       66.9        288       1080        889      -0.95       0.00       0.00      0.000
2:56am            202          0          0         46         86       71.6       66.9      29.61       66.9        288       1080        889      -0.93       0.00       0.00      0.000
2:57am            202          0          0         46         86       71.6       66.9      29.61       66.9        288       1080        889      -0.92       0.00       0.00      0.000
2:58am            202          0          0         46         86       71.6       66.9      29.61       66.9        287       1080        888      -0.90       0.00       0.00      0.000
2:59am            202          0          0         46         86       71.6       66.9      29.61       66.9        288       1080        889      -0.88       0.00       0.00      0.000
3:00am            202          0          0         46         86       71.6       66.8      29.61       66.8        288       1079        883      -0.97       0.00       0.00      0.000
3:01am            202          0          0         46         86       71.8       66.8      29.61       66.8        288       1079        883      -0.95       0.00       0.00      0.000
3:02am            202          0          0         46         87       71.6       66.8      29.61       66.8        288        997        883      -0.94       0.00       0.00      0.000
3:03am            202          0          0         46         87       71.8       66.7      29.61       66.7        288        997        876      -1.02       0.00       0.00      0.000
3:04am            202          0          0         46         87       71.8       66.7      29.61       66.7        288        997        876      -1.00       0.00       0.00      0.000
3:05am            202          0          0         46         87       71.8       66.7      29.61       66.7        288        997        876      -0.98       0.00       0.00      0.000
3:06am            202          0          0         46         87       71.8       66.7      29.61       66.7        288        997        876      -0.97       0.00       0.00      0.000
3:07am            202          0          0         46         87       71.8       66.7      29.61       66.7        288        997        876      -0.95       0.00       0.00      0.000
3:08am            202          0          0         46         87       71.8       66.7      29.61       66.7        288        997        876      -0.94       0.00       0.00      0.000
3:09am            202          0          0         46         87       71.8       66.6      29.61       66.6        289        996        871      -1.02       0.00       0.00      0.000
3:10am            202          0          0         46         87       71.8       66.5      29.61       66.5        289        996        864      -1.10       0.00       0.00      0.000
3:11am            202          0          0         46         87       71.8       66.6      29.61       66.6        289        996        871      -0.98       0.00       0.00      0.000
3:12am            202          0          0         46         87       71.6       66.6      29.61       66.6        288        996        870      -0.97       0.00       0.00      0.000
3:13am            202          0          0         46         87       71.6       66.4      29.61       66.4        289        995        858      -1.15       0.00       0.00      0.000
3:14am            202          0          0         46         87       71.6       66.5      29.61       66.5        288        996        863      -1.03       0.00       0.00      0.000
3:15am            202          0          0         46         87       71.6       66.5      29.61       66.5        289        996        864      -1.02       0.00       0.00      0.000
3:16am            202          0          0         46         87       71.6       66.5      29.61       66.5        289        996        864      -1.00       0.00       0.00      0.000
3:17am            202          0          0         46         87       71.6       66.4      29.61       66.4        289        995        858      -1.08       0.00       0.00      0.000
3:18am            202          0          0         46         87       71.6       66.4      29.61       66.4        289        995        858      -1.06       0.00       0.00      0.000
3:19am            202          0          0         46         87       71.6       66.4      29.61       66.4        290        995        859      -1.04       0.00       0.00      0.000
3:20am            202          0          0         46         87       71.6       66.3      29.61       66.3        290        995        853      -1.13       0.00       0.00      0.000
3:21am            202          0          0         46         87       71.6       66.3      29.61       66.3        289        995        852      -1.11       0.00       0.00      0.000
3:22am            202          0          0         46         87       71.6       66.3      29.61       66.3        289        995        852      -1.09       0.00       0.00      0.000
3:23am            202          0          0         46         87       71.6       66.3      29.61       66.3        288        995        850      -1.07       0.00       0.00      0.000
3:24am            202          0          0         46         87       71.6       66.3      29.61       66.3        288        995        850      -1.05       0.00       0.00      0.000
3:25am            202          0          0         46         88       71.6       66.2      29.61       66.2        288        913        844      -1.13       0.00       0.00      0.000
3:26am            202          0          0         46         87       71.6       66.1      29.61       66.1        287        994        836      -1.22       0.00       0.00      0.000
3:27am            202          0          0         46         88       71.6       66.1      29.61       66.1        287        913        836      -1.20       0.00       0.00      0.000
3:28am            202          0          0         46         88       71.6       66.1      29.61       66.1        287        913        836      -1.18       0.00       0.00      0.000
3:29am            202          0          0         46         88       71.6       66.1      29.61       66.1        287        913        836      -1.16       0.00       0.00      0.000
3:30am            202          0          0         46         88       71.6       66.0      29.61       66.0        287        913        830      -1.24       0.00       0.00      0.000
3:31am            202          0          0         46         88       71.6       66.0      29.61       66.0        287        913        830      -1.22       0.00       0.00      0.000
3:32am            202          0          0         46         88       71.6       66.0      29.61       66.0        287        913        830      -1.20       0.00       0.00      0.000
3:33am            202          0          0         46         88       71.6       65.9      29.61       65.9        288        912        825      -1.28       0.00       0.00      0.000
3:34am            202          0          0         46         88       71.6       65.9      29.61       65.9        288        912        825      -1.26       0.00       0.00      0.000
3:35am            202          0          0         46         88       71.6       65.9      29.61       65.9        288        912        825      -1.24       0.00       0.00      0.000
3:36am            202          0          0         46         88       71.6       65.8      29.61       65.8        288        912        818      -1.31       0.00       0.00      0.000
3:37am            202          0          0         46         88       71.8       65.8      29.61       65.8        288        912        818      -1.29       0.00       0.00      0.000
3:38am            202          0          0         46         88       71.8       65.8      29.61       65.8        288        912        818      -1.27       0.00       0.00      0.000
3:39am            202          0          0         46         88       71.8       65.7      29.61       65.7        288        912        812      -1.35       0.00       0.00      0.000
3:40am            202          0          0         46         88       71.8       65.6      29.61       65.6        288        911        805      -1.42       0.00       0.00      0.000
3:41am            202          0          0         46         88       71.8       65.6      29.61       65.6        288        911        805      -1.40       0.00       0.00      0.000
3:42am            202          0          0         46         89       71.8       65.5      29.61       65.5        288        831        799      -1.48       0.00       0.00      0.000
3:43am            202          0          0         46         89       71.8       65.5      29.61       65.5        288        831        799      -1.45       0.00       0.00      0.000
3:44am            195          2          3         46         89       71.8       65.5      29.61       65.5        289        831        800      -1.43       0.00       0.00      0.000
3:45am            196          0          3         46         89       71.8       65.5      29.61       65.5        288        831        799      -1.40       0.00       0.00      0.000
3:46am            196          0          1         46         89       71.8       65.5      29.61       65.5        289        831        800      -1.38       0.00       0.00      0.000
3:47am            196          0          1         46         89       71.8       65.5      29.61       65.5        289        831        800      -1.36       0.00       0.00      0.000
3:48am            196          0          1         46         89       71.8       65.5      29.61       65.5        289        831        800      -1.34       0.00       0.00      0.000
3:49am            196          0          1         46         89       71.8       65.5      29.61       65.5        290        831        801      -1.31       0.00       0.00      0.000
3:50am            196          0          1         46         89       71.8       65.4      29.61       65.4        289        830        793      -1.39       0.00       0.00      0.000
3:51am            196          0          0         46         89       71.8       65.4      29.61       65.4        290        830        794      -1.37       0.00       0.00      0.000
3:52am            196          0          0         46         89       71.8       65.4      29.61       65.4        289        830        793      -1.35       0.00       0.00      0.000
3:53am            196          0          1         46         89       71.8       65.4      29.61       65.4        290        830        794      -1.32       0.00       0.00      0.000
3:54am            196          0          1         46         90       71.8       65.4      29.61       65.4        289        751        793      -1.30       0.00       0.00      0.000
3:55am            196          0          1         46         89       71.9       65.3      29.61       65.3        289        830        787      -1.38       0.00       0.00      0.000
3:56am            196          0          0         46         89       71.9       65.3      29.61       65.3        289        830        787      -1.36       0.00       0.00      0.000
3:57am            196          1          1         46         89       71.9       65.3      29.61       65.3        288        830        786      -1.33       0.00       0.00      0.000
3:58am            196          0          2         46         90       71.9       65.3      29.61       65.3        288        751        786      -1.31       0.00       0.00      0.000
3:59am            196          0          2         46         90       71.9       65.2      29.61       65.2        288        751        779      -1.39       0.00       0.00      0.000
4:00am            196          0          2         46         90       71.9       65.2      29.61       65.2        288        751        779      -1.36       0.00       0.00      0.000
4:01am            196          0          0         46         90       71.9       65.2      29.61       65.2        288        751        779      -1.34       0.00       0.00      0.000
4:02am            196          0          1         46         90       71.9       65.2      29.61       65.2        288        751        779      -1.32       0.00       0.00      0.000
4:03am            196          0          1         46         90       71.9       65.1      29.61       65.1        288        750        773      -1.40       0.00       0.00      0.000
4:04am            196          0          1         46         90       71.9       65.2      29.61       65.2        288        751        779      -1.27       0.00       0.00      0.000
4:05am            196          0          1         46         90       71.9       65.1      29.61       65.1        288        750        773      -1.35       0.00       0.00      0.000
4:06am            196          0          1         46         90       71.9       65.1      29.61       65.1        288        750        773      -1.33       0.00       0.00      0.000
4:07am            196          2          2         46         90       71.9       65.1      29.61       65.1        288        750        773      -1.31       0.00       0.00      0.000
4:08am            196          0          2         46         90       71.9       65.1      29.61       65.1        288        750        773      -1.29       0.00       0.00      0.000
4:09am            196          0          2         46         90       71.9       65.1      29.61       65.1        288        750        773      -1.27       0.00       0.00      0.000
4:10am            196          0          2         46         90       71.9       65.1      29.61       65.1        288        750        773      -1.24       0.00       0.00      0.000
4:11am            196          0          0         46         90       71.9       65.0      29.61       65.0        288        750        766      -1.32       0.00       0.00      0.000
4:12am            196          0          0         46         90       72.1       65.0      29.61       65.0        289        750        767      -1.30       0.00       0.00      0.000
4:13am            196          0          0         46         90       72.1       65.0      29.61       65.0        289        750        767      -1.28       0.00       0.00      0.000
4:14am            196          0          0         46         90       72.1       65.0      29.61       65.0        289        750        767      -1.26       0.00       0.00      0.000
4:15am            196          0          0         46         90       72.1       65.0      29.61       65.0        289        750        767      -1.24       0.00       0.00      0.000
4:16am            196          0          0         46         90       72.1       65.0      29.61       65.0        289        750        767      -1.22       0.00       0.00      0.000
4:17am            196          0          0         46         90       72.1       64.9      29.61       64.9        289        750        761      -1.30       0.00       0.00      0.000

Data provided from:  Mark Hofmann's Bel Air, MD Weather Station